Tiempo atmosférico en la estación meteorológica de Olite/Erriberri, Navarra (390 m.)



Fecha
DESCASC
Temp. máxima en grados centígrados (hora)
DESCASC
Temp. mínima en grados centígrados (hora)
DESCASC
Temp. media en grados centígrados
DESCASC
Racha de viento máxima en m/sg (hora)
DESCASC
Velocidad máxima media en intervalos de 10 minutos(hora)
DESCASC
Precipitaciones diarias en mm
DESCASC
Precipitaciones de 00:00 a 06:00 en mm
DESCASC
Precipitaciones de 06:00 a 12:00 en mm
DESCASC
Precipitaciones de 12:00 a 18:00 en mm
DESCASC
Precipitaciones de 18:00 a 24:00 en mm
DESCASC
06-07-2020 24.3 (13:00) 14.4 (23:50) 19.3 15 (11:30) 8.06 (17:30) 0 0 0 0 0
05-07-2020 30.6 (16:00) 15.7 (07:00) 23.2 13.06 (20:10) 6.39 (20:10) 0 0 0 0 0
04-07-2020 27.1 (17:20) 11.6 (06:00) 19.4 13.61 (22:30) 6.39 (22:10) 0 0 0 0 0
03-07-2020 22 (16:10) 14 (05:20) 18 12.5 (15:40) 6.39 (16:40) 0 0 0 0 0
02-07-2020 24.4 (14:10) 15.8 (00:00) 20.1 13.61 (16:50) 7.5 (19:30) 1 1 0 0 0
01-07-2020 29.2 (14:20) 18.1 (00:00) 23.7 11.11 (17:30) 5.83 (16:20) 0.2 0 0.2 0 0
30-06-2020 31.1 (16:40) 14.2 (00:00) 22.7 10.28 (00:10) 5 (01:50) 0.8 0 0 0 0.8
29-06-2020 25.7 (15:00) 16.8 (00:00) 21.3 10.28 (23:00) 6.11 (22:50) 0.2 0.2 0 0 0
28-06-2020 30.5 (16:30) 17.7 (00:00) 24.1 11.67 (21:40) 6.39 (20:50) 0 0 0 0 0
27-06-2020 30 (18:50) 14.4 (00:00) 22.2 6.94 (20:10) 3.89 (20:20) 0 0 0 0 0
26-06-2020 30.1 (17:20) 15.7 (00:00) 22.9 11.11 (18:40) 6.11 (18:10) 5.8 0 0 0 5.8
25-06-2020 31.6 (16:50) 15.8 (00:00) 23.7 15 (18:30) 7.22 (19:50) 3.6 0 0 0 3.6
24-06-2020 32.4 (19:30) 18.5 (00:00) 25.5 10.28 (21:40) 5.28 (20:20) 0 0 0 0 0
23-06-2020 33.3 (19:40) 12.9 (00:00) 23.1 8.89 (10:30) 5 (11:10) 0 0 0 0 0
22-06-2020 28 (17:30) 15.3 (00:00) 21.7 11.67 (10:40) 6.39 (10:40) 0 0 0 0 0
21-06-2020 27.5 (15:10) 14.8 (00:00) 21.2 11.67 (17:30) 5.83 (18:50) 0 0 0 0 0
20-06-2020 29.1 (18:10) 13 (00:00) 21.1 7.78 (19:20) 5.28 (01:20) 0 0 0 0 0
19-06-2020 27 (18:30) 11 (00:00) 19 8.61 (20:10) 5 (23:50) 0 0 0 0 0
18-06-2020 23.4 (17:00) 11.8 (00:00) 17.6 8.33 (19:10) 4.72 (19:20) 0.2 0 0.2 0 0
17-06-2020 22.1 (17:00) 11.2 (00:00) 16.7 10.28 (19:10) 5.83 (19:00) 0 0 0 0 0
16-06-2020 22.9 (14:00) 13.1 (00:00) 18 15.28 (15:50) 7.78 (15:50) 3.4 0 0 0.4 3
15-06-2020 24.2 (15:40) 11.9 (00:00) 18.1 8.33 (14:50) 5 (15:50) 0 0 0 0 0
14-06-2020 23.8 (16:10) 12.8 (00:00) 18.3 8.89 (19:40) 5.28 (19:40) 0 0 0 0 0
13-06-2020 22.1 (17:30) 11.6 (00:00) 16.9 11.11 (13:30) 6.67 (13:30) 0 0 0 0 0
12-06-2020 19.3 (17:20) 6.4 (00:00) 12.8 11.67 (14:00) 5.83 (16:50) 2 0 0 1.6 0.4
11-06-2020 21.8 (16:50) 10.4 (00:00) 16.1 13.89 (19:00) 8.33 (19:00) 2.8 0 0 0 2.8
10-06-2020 19.9 (15:20) 10.6 (00:00) 15.3 8.89 (13:20) 5 (13:20) 0 0 0 0 0
09-06-2020 18.7 (16:10) 8.5 (00:00) 13.6 14.44 (14:20) 6.67 (14:20) 0 0 0 0 0
08-06-2020 17.9 (17:20) 9.1 (06:30) 13.5 11.39 (18:40) 6.11 (18:30) 0 0 0 0 0

Gráficas

Temp. máximas Temp. mínimas Temp. medias Precipitaciones Rachas de viento máximas Velocidades máximas media en intervalos de 10 minutos

Datos horarios

Fecha y hora oficial Temperatura (ºC) Velocidad del viento (km/h) Dirección del viento Racha (km/h) Dirección de racha Precipitación (mm) Presión (hPa) Tendencia (hPa) Humedad (%)
2020-07-07 23:00:00 18.9 17 Noroeste 27 Noroeste 0 -- -- 68
2020-07-07 22:00:00 20.4 13 Noroeste 25 Noroeste 0 -- -- 63
2020-07-07 21:00:00 22.8 14 Noroeste 28 Noroeste 0 -- -- 54
2020-07-07 20:00:00 25.3 13 Noroeste 29 Noroeste 0 -- -- 46
2020-07-07 19:00:00 26.6 14 Norte 34 Noroeste 0 -- -- 41
2020-07-07 18:00:00 27.2 16 Noroeste 32 Noroeste 0 -- -- 35
2020-07-07 17:00:00 27 16 Norte 35 Noroeste 0 -- -- 35
2020-07-07 16:00:00 27 16 Noroeste 29 Noroeste 0 -- -- 38
2020-07-07 15:00:00 26 16 Noroeste 30 Noroeste 0 -- -- 37
2020-07-07 14:00:00 24.9 18 Noroeste 31 Noroeste 0 -- -- 39
2020-07-07 13:00:00 23.3 12 Norte 30 Noroeste 0 -- -- 45
2020-07-07 12:00:00 21.8 17 Noroeste 33 Noroeste 0 -- -- 48
2020-07-07 11:00:00 19.8 17 Norte 34 Noroeste 0 -- -- 56
2020-07-07 10:00:00 18.3 19 Noroeste 36 Norte 0 -- -- 59
2020-07-07 09:00:00 16.7 20 Noroeste 35 Noroeste 0 -- -- 64
2020-07-07 08:00:00 15.5 17 Noroeste 31 Noroeste 0 -- -- 69
2020-07-07 07:00:00 13.6 14 Noroeste 32 Noroeste 0 -- -- 74
2020-07-07 06:00:00 13.4 17 Noroeste 42 Noroeste 0 -- -- 75
2020-07-07 05:00:00 13.3 22 Noroeste 37 Noroeste 0 -- -- 74
2020-07-07 04:00:00 13.3 23 Noroeste 39 Noroeste 0 -- -- 72
2020-07-07 03:00:00 13.3 22 Noroeste 44 Noroeste 0 -- -- 71
2020-07-07 02:00:00 13.5 23 Noroeste 52 Norte 0 -- -- 71
2020-07-07 01:00:00 13.8 19 Noroeste 46 Noroeste 0 -- -- 68
2020-07-07 00:00:00 14.4 26 Noroeste 45 Noroeste 0 -- -- 68
2020-07-06 23:00:00 15 18 Noroeste 48 Noroeste 0 -- -- 68
2020-07-06 22:00:00 16 22 Noroeste 39 Noroeste 0 -- -- 65
2020-07-06 21:00:00 18 24 Noroeste 47 Noroeste 0 -- -- 58
2020-07-06 20:00:00 19.2 21 Norte 46 Norte 0 -- -- 59
2020-07-06 19:00:00 19.7 26 Noroeste 50 Norte 0 -- -- 62
2020-07-06 18:00:00 21.3 27 Norte 51 Noroeste 0 -- -- 59
2020-07-06 17:00:00 22.5 24 Norte 52 Noroeste 0 -- -- 56
2020-07-06 16:00:00 23.2 26 Norte 51 Norte 0 -- -- 55
2020-07-06 15:00:00 23.8 24 Norte 46 Norte 0 -- -- 52
2020-07-06 14:00:00 24 26 Noroeste 48 Noroeste 0 -- -- 53
2020-07-06 13:00:00 24.3 20 Noroeste 47 Noroeste 0 -- -- 58
2020-07-06 12:00:00 23.3 26 Noroeste 54 Noroeste 0 -- -- 59
2020-07-06 11:00:00 22.3 23 Noroeste 44 Noroeste 0 -- -- 63
2020-07-06 10:00:00 21.9 22 Noroeste 39 Noroeste 0 -- -- 64
2020-07-06 09:00:00 20.8 19 Noroeste 35 Noroeste 0 -- -- 68
2020-07-06 08:00:00 19.7 18 Noroeste 33 Noroeste 0 -- -- 72
2020-07-06 07:00:00 18.1 17 Noroeste 33 Noroeste 0 -- -- 76
2020-07-06 06:00:00 17.6 18 Noroeste 33 Noroeste 0 -- -- 77
2020-07-06 05:00:00 17.3 18 Noroeste 36 Noroeste 0 -- -- 76
2020-07-06 04:00:00 17.5 18 Noroeste 45 Norte 0 -- -- 74
2020-07-06 03:00:00 17.7 22 Noroeste 39 Noroeste 0 -- -- 73
2020-07-06 02:00:00 17.8 18 Noroeste 39 Noroeste 0 -- -- 70
2020-07-06 01:00:00 19.1 20 Noroeste 39 Noroeste 0 -- -- 63
2020-07-06 00:00:00 20.1 16 Noroeste 30 Noroeste 0 -- -- 61
2020-07-05 23:00:00 20.9 15 Noroeste 33 Noroeste 0 -- -- 60
2020-07-05 22:00:00 21.9 19 Noroeste 36 Norte 0 -- -- 58
2020-07-05 21:00:00 24 17 Norte 47 Noroeste 0 -- -- 54
2020-07-05 20:00:00 26.2 22 Noroeste 40 Noroeste 0 -- -- 50
2020-07-05 19:00:00 27.9 19 Norte 37 Noroeste 0 -- -- 48
2020-07-05 18:00:00 29.2 18 Norte 36 Norte 0 -- -- 42
2020-07-05 17:00:00 29.8 15 Norte 32 Norte 0 -- -- 41
2020-07-05 16:00:00 30.6 12 Noroeste 28 Nordeste 0 -- -- 38
2020-07-05 15:00:00 29.9 14 Norte 24 Noroeste 0 -- -- 35
2020-07-05 14:00:00 29.5 10 Norte 24 Norte 0 -- -- 35
2020-07-05 13:00:00 27.8 12 Norte 25 Oeste 0 -- -- 35
2020-07-05 12:00:00 26.9 16 Noroeste 31 Noroeste 0 -- -- 34
2020-07-05 11:00:00 25.1 14 Noroeste 27 Noroeste 0 -- -- 35
2020-07-05 10:00:00 23.3 13 Noroeste 25 Noroeste 0 -- -- 33
2020-07-05 09:00:00 20.7 14 Noroeste 21 Noroeste 0 -- -- 38
2020-07-05 08:00:00 18.6 10 Noroeste 18 Noroeste 0 -- -- 46
2020-07-05 07:00:00 15.7 0 Calma 18 Noroeste 0 -- -- 51
2020-07-05 06:00:00 17.4 13 Noroeste 27 Noroeste 0 -- -- 41
2020-07-05 05:00:00 16.6 9 Noroeste 19 Noroeste 0 -- -- 43
2020-07-05 04:00:00 17.7 9 Noroeste 22 Noroeste 0 -- -- 37
2020-07-05 03:00:00 18.6 15 Noroeste 31 Noroeste 0 -- -- 33
2020-07-05 02:00:00 18.3 17 Noroeste 31 Noroeste 0 -- -- 35
2020-07-05 01:00:00 19.5 15 Noroeste 30 Norte 0 -- -- 39
2020-07-05 00:00:00 19.3 9 Noroeste 36 Norte 0 -- -- 51
2020-07-04 23:00:00 20.1 18 Noroeste 49 Noroeste 0 -- -- 55
2020-07-04 22:00:00 21.1 20 Noroeste 35 Noroeste 0 -- -- 51
2020-07-04 21:00:00 22.8 19 Norte 37 Norte 0 -- -- 46
2020-07-04 20:00:00 24.4 22 Norte 41 Norte 0 -- -- 39
2020-07-04 19:00:00 25.5 22 Norte 45 Norte 0 -- -- 34
2020-07-04 18:00:00 26.5 18 Norte 33 Norte 0 -- -- 32
2020-07-04 17:00:00 26.8 15 Norte 33 Norte 0 -- -- 30
2020-07-04 16:00:00 26.2 15 Norte 35 Oeste 0 -- -- 34
2020-07-04 15:00:00 26.1 14 Noroeste 33 Noroeste 0 -- -- 34
2020-07-04 14:00:00 24.9 17 Norte 30 Norte 0 -- -- 36
2020-07-04 13:00:00 24 14 Noroeste 34 Noroeste 0 -- -- 40
2020-07-04 12:00:00 21.7 17 Noroeste 28 Noroeste 0 -- -- 45
2020-07-04 11:00:00 20 10 Noroeste 29 Oeste 0 -- -- 53
2020-07-04 10:00:00 18.1 13 Noroeste 30 Norte 0 -- -- 56
2020-07-04 09:00:00 15.6 17 Noroeste 31 Noroeste 0 -- -- 65
2020-07-04 08:00:00 13.3 19 Noroeste 31 Noroeste 0 -- -- 72
2020-07-04 07:00:00 11.7 15 Noroeste 30 Noroeste 0 -- -- 78
2020-07-04 06:00:00 11.6 14 Noroeste 28 Noroeste 0 -- -- 78
2020-07-04 05:00:00 12.4 18 Noroeste 30 Noroeste 0 -- -- 73
2020-07-04 04:00:00 12.5 21 Noroeste 34 Noroeste 0 -- -- 70
2020-07-04 03:00:00 13.2 22 Noroeste 33 Noroeste 0 -- -- 68
2020-07-04 02:00:00 13.8 18 Noroeste 27 Noroeste 0 -- -- 73
2020-07-04 01:00:00 14 14 Noroeste 26 Noroeste 0 -- -- 69
2020-07-04 00:00:00 14.3 14 Noroeste 26 Noroeste 0 -- -- 67
2020-07-03 23:00:00 15.3 9 Noroeste 31 Noroeste 0 -- -- 65
2020-07-03 22:00:00 16.3 13 Noroeste 37 Noroeste 0 -- -- 61
2020-07-03 21:00:00 18 18 Noroeste 38 Norte 0 -- -- 53
2020-07-03 20:00:00 19.7 18 Norte 41 Noroeste 0 -- -- 49
2020-07-03 19:00:00 20.9 18 Norte 41 Noroeste 0 -- -- 48
2020-07-03 18:00:00 21.4 20 Norte 42 Norte 0 -- -- 47
2020-07-03 17:00:00 21.6 19 Norte 42 Noroeste 0 -- -- 45
2020-07-03 16:00:00 21.9 18 Noroeste 45 Noroeste 0 -- -- 44
2020-07-03 15:00:00 21 22 Norte 42 Norte 0 -- -- 48
2020-07-03 14:00:00 21.1 20 Noroeste 44 Noroeste 0 -- -- 48
2020-07-03 13:00:00 20.6 18 Norte 40 Norte 0 -- -- 46
2020-07-03 12:00:00 19.2 19 Norte 42 Norte 0 -- -- 49
2020-07-03 11:00:00 18.6 21 Noroeste 39 Noroeste 0 -- -- 54
2020-07-03 10:00:00 16.9 21 Norte 39 Norte 0 -- -- 60
2020-07-03 09:00:00 15.9 19 Norte 35 Norte 0 -- -- 67
2020-07-03 08:00:00 15.3 12 Noroeste 30 Noroeste 0 -- -- 74
2020-07-03 07:00:00 14.6 14 Noroeste 27 Noroeste 0 -- -- 74
2020-07-03 06:00:00 14.3 12 Noroeste 24 Noroeste 0 -- -- 74
2020-07-03 05:00:00 14.1 12 Noroeste 20 Noroeste 0 -- -- 74
2020-07-03 04:00:00 14.6 12 Noroeste 27 Noroeste 0 -- -- 72
2020-07-03 03:00:00 14.9 10 Noroeste 25 Noroeste 0 -- -- 72
2020-07-03 02:00:00 15.1 14 Noroeste 28 Noroeste 0 -- -- 71
2020-07-03 01:00:00 15.4 15 Noroeste 28 Noroeste 0 -- -- 71
2020-07-03 00:00:00 15.9 13 Noroeste 37 Noroeste 0 -- -- 71
2020-07-02 23:00:00 16 14 Norte 39 Noroeste 0 -- -- 70
2020-07-02 22:00:00 16.1 18 Norte 39 Noroeste 0 -- -- 70
2020-07-02 21:00:00 17 19 Noroeste 43 Norte 0 -- -- 65
2020-07-02 20:00:00 18 24 Noroeste 46 Noroeste 0 -- -- 66
2020-07-02 19:00:00 20 24 Noroeste 44 Noroeste 0 -- -- 59
2020-07-02 18:00:00 21.7 22 Norte 44 Norte 0 -- -- 57
2020-07-02 17:00:00 21.6 26 Norte 49 Norte 0 -- -- 59
2020-07-02 16:00:00 24.1 20 Norte 36 Norte 0 -- -- 50
2020-07-02 15:00:00 24.2 17 Norte 32 Norte 0 -- -- 52
2020-07-02 14:00:00 24 18 Norte 30 Norte 0 -- -- 53
2020-07-02 13:00:00 23.5 15 Norte 30 Noroeste 0 -- -- 52
2020-07-02 12:00:00 23.1 14 Noroeste 27 Noroeste 0 -- -- 53
2020-07-02 11:00:00 21.7 12 Norte 28 Norte 0 -- -- 64
2020-07-02 10:00:00 20.3 11 Norte 25 Norte 0 -- -- 65
2020-07-02 09:00:00 18.4 14 Norte 38 Norte 0 -- -- 73
2020-07-02 08:00:00 17 14 Norte 30 Norte 0 -- -- 79
2020-07-02 07:00:00 16.7 13 Noroeste 27 Norte 0 -- -- 80
2020-07-02 06:00:00 16.8 13 Norte 33 Noroeste 0 -- -- 80
2020-07-02 05:00:00 17.4 11 Noroeste 33 Noroeste 0 -- -- 80
2020-07-02 04:00:00 17.6 17 Noroeste 26 Noroeste 0 -- -- 78
2020-07-02 03:00:00 17.6 13 Noroeste 30 Noroeste 0.2 -- -- 78
2020-07-02 02:00:00 17.7 9 Norte 36 Norte 0.2 -- -- 75
2020-07-02 01:00:00 18.1 15 Norte 32 Norte 0.6 -- -- 75
2020-07-02 00:00:00 18.4 15 Norte 31 Norte 0 -- -- 75
2020-07-01 23:00:00 18.8 13 Norte 27 Norte 0 -- -- 75
2020-07-01 22:00:00 19.3 13 Norte 30 Norte 0 -- -- 73
2020-07-01 21:00:00 20.9 14 Norte 32 Norte 0 -- -- 67
2020-07-01 20:00:00 21.9 16 Norte 38 Norte 0 -- -- 64
2020-07-01 19:00:00 22.8 8 Sudeste 29 Nordeste 0 -- -- 63
2020-07-01 18:00:00 23.7 14 Norte 40 Norte 0 -- -- 60
2020-07-01 17:00:00 26.3 17 Norte 35 Norte 0 -- -- 54
2020-07-01 16:00:00 27 21 Norte 36 Norte 0 -- -- 56
2020-07-01 15:00:00 28.7 13 Norte 28 Norte 0 -- -- 51
2020-07-01 14:00:00 28.8 8 Noroeste 26 Noroeste 0 -- -- 49
2020-07-01 13:00:00 28.2 4 Nordeste 15 Sudeste 0 -- -- 52
2020-07-01 12:00:00 27.2 3 Noroeste 10 Oeste 0 -- -- 54
2020-07-01 11:00:00 26 4 Sudoeste 9 Sudoeste 0.2 -- -- 59
2020-07-01 10:00:00 24.5 3 Sudoeste 10 Este 0 -- -- 64
2020-07-01 09:00:00 22.7 2 Este 5 Este 0 -- -- 71
2020-07-01 08:00:00 19.7 2 Noroeste 7 Norte 0 -- -- 84
2020-07-01 07:00:00 18.2 4 Noroeste 11 Noroeste 0 -- -- 87
2020-07-01 06:00:00 18.5 0 Calma 5 Noroeste 0 -- -- 87
2020-07-01 05:00:00 18.5 0 Calma 7 Sudeste 0 -- -- 88
2020-07-01 04:00:00 18.7 2 Oeste 7 Noroeste 0 -- -- 86
2020-07-01 03:00:00 19.9 3 Noroeste 9 Norte 0 -- -- 79
2020-07-01 02:00:00 21.2 0 Calma 26 Este 0 -- -- 76
2020-07-01 01:00:00 21.3 4 Este 17 Norte 0 -- -- 75
2020-07-01 00:00:00 22.9 5 Sur 25 Sudoeste 0.6 -- -- 60
2020-06-30 23:00:00 23.9 8 Sudoeste 23 Oeste 0 -- -- 60
2020-06-30 22:00:00 25.2 6 Sudoeste 24 Sur 0.2 -- -- 51
2020-06-30 21:00:00 26.3 3 Oeste 18 Oeste 0 -- -- 49
2020-06-30 20:00:00 27 3 Este 15 Oeste 0 -- -- 49
2020-06-30 19:00:00 28.9 5 Sudoeste 18 Sur 0 -- -- 41
2020-06-30 18:00:00 30.5 3 Sur 18 Sur 0 -- -- 39
2020-06-30 17:00:00 31.1 9 Sudeste 21 Sudeste 0 -- -- 38
2020-06-30 16:00:00 30.3 8 Sudeste 21 Sudeste 0 -- -- 38
2020-06-30 15:00:00 29.2 12 Sudeste 23 Sur 0 -- -- 37
2020-06-30 14:00:00 28 9 Sudeste 24 Sur 0 -- -- 46
2020-06-30 13:00:00 26.1 10 Sur 24 Sudeste 0 -- -- 54
2020-06-30 12:00:00 23.7 9 Sur 21 Sudeste 0 -- -- 61
2020-06-30 11:00:00 22.1 4 Sudeste 9 Sudeste 0 -- -- 62
2020-06-30 10:00:00 19.5 4 Oeste 9 Oeste 0 -- -- 64
2020-06-30 09:00:00 17.1 3 Norte 14 Noroeste 0 -- -- 67
2020-06-30 08:00:00 15.3 8 Noroeste 17 Oeste 0 -- -- 78
2020-06-30 07:00:00 14.4 9 Noroeste 16 Noroeste 0 -- -- 82
2020-06-30 06:00:00 14.2 6 Noroeste 14 Noroeste 0 -- -- 83
2020-06-30 05:00:00 14.7 8 Noroeste 13 Noroeste 0 -- -- 83
2020-06-30 04:00:00 14.9 7 Noroeste 24 Noroeste 0 -- -- 83
2020-06-30 03:00:00 16 16 Noroeste 31 Noroeste 0 -- -- 78
2020-06-30 02:00:00 16.1 17 Noroeste 33 Noroeste 0 -- -- 78
2020-06-30 01:00:00 16.2 15 Noroeste 37 Noroeste 0 -- -- 78
2020-06-30 00:00:00 16.8 16 Noroeste 33 Noroeste 0 -- -- 76
2020-06-29 23:00:00 17.3 21 Noroeste 37 Noroeste 0 -- -- 75
2020-06-29 22:00:00 18 17 Noroeste 32 Noroeste 0 -- -- 74
2020-06-29 21:00:00 19.2 15 Norte 33 Norte 0 -- -- 69
2020-06-29 20:00:00 21.2 20 Norte 35 Norte 0 -- -- 63
2020-06-29 19:00:00 23.3 18 Norte 36 Norte 0 -- -- 57
2020-06-29 18:00:00 25 19 Noroeste 34 Noroeste 0 -- -- 52
2020-06-29 17:00:00 25.1 18 Norte 34 Norte 0 -- -- 55
2020-06-29 16:00:00 25.7 17 Norte 31 Norte 0 -- -- 52
2020-06-29 15:00:00 25.7 14 Norte 29 Norte 0 -- -- 54
2020-06-29 14:00:00 25.1 13 Norte 27 Norte 0 -- -- 54
2020-06-29 13:00:00 24.7 13 Noroeste 29 Noroeste 0 -- -- 53
2020-06-29 12:00:00 24 13 Noroeste 27 Noroeste 0 -- -- 59
2020-06-29 11:00:00 22.7 14 Noroeste 28 Noroeste 0 -- -- 61
2020-06-29 10:00:00 21.5 13 Noroeste 28 Noroeste 0 -- -- 67
2020-06-29 09:00:00 20.3 13 Noroeste 26 Noroeste 0 -- -- 71
2020-06-29 08:00:00 19.2 6 Noroeste 13 Noroeste 0 -- -- 74
2020-06-29 07:00:00 17.9 9 Noroeste 17 Noroeste 0 -- -- 77
2020-06-29 06:00:00 18.1 12 Noroeste 19 Noroeste 0 -- -- 76
2020-06-29 05:00:00 18.5 9 Noroeste 17 Noroeste 0 -- -- 74
2020-06-29 04:00:00 18.7 9 Noroeste 17 Noroeste 0 -- -- 73
2020-06-29 03:00:00 18.5 9 Noroeste 26 Noroeste 0 -- -- 76
2020-06-29 02:00:00 18.9 10 Noroeste 22 Norte 0.2 -- -- 73
2020-06-29 01:00:00 19 11 Noroeste 23 Noroeste 0 -- -- 73
2020-06-29 00:00:00 19.9 12 Noroeste 31 Norte 0 -- -- 68
2020-06-28 23:00:00 20.4 15 Norte 36 Noroeste 0 -- -- 65
2020-06-28 22:00:00 21.8 19 Norte 42 Norte 0 -- -- 60
2020-06-28 21:00:00 24.1 22 Norte 39 Norte 0 -- -- 55
2020-06-28 20:00:00 26.1 19 Norte 34 Norte 0 -- -- 50
2020-06-28 19:00:00 27.4 19 Norte 36 Norte 0 -- -- 47
2020-06-28 18:00:00 29 16 Norte 30 Noroeste 0 -- -- 44
2020-06-28 17:00:00 30 9 Oeste 23 Noroeste 0 -- -- 38
2020-06-28 16:00:00 28.8 5 Nordeste 22 Noroeste 0 -- -- 45
2020-06-28 15:00:00 29.1 5 Noroeste 16 Noroeste 0 -- -- 43
2020-06-28 14:00:00 28.2 6 Noroeste 19 Noroeste 0 -- -- 43
2020-06-28 13:00:00 27.3 7 Oeste 19 Noroeste 0 -- -- 49
2020-06-28 12:00:00 26.3 4 Este 10 Este 0 -- -- 53
2020-06-28 11:00:00 24.7 3 Noroeste 11 Sudoeste 0 -- -- 58
2020-06-28 10:00:00 22.9 4 Noroeste 12 Noroeste 0 -- -- 63
2020-06-28 09:00:00 20.2 5 Noroeste 15 Noroeste 0 -- -- 73
2020-06-28 08:00:00 18.8 10 Noroeste 17 Noroeste 0 -- -- 77
2020-06-28 07:00:00 17.9 9 Noroeste 16 Noroeste 0 -- -- 79
2020-06-28 06:00:00 17.9 8 Noroeste 20 Noroeste 0 -- -- 77
2020-06-28 05:00:00 18.3 10 Noroeste 21 Noroeste 0 -- -- 75
2020-06-28 04:00:00 19 12 Noroeste 19 Noroeste 0 -- -- 72
2020-06-28 03:00:00 19.7 14 Noroeste 21 Noroeste 0 -- -- 72
2020-06-28 02:00:00 20.6 7 Noroeste 13 Noroeste 0 -- -- 72
2020-06-28 01:00:00 20.9 6 Norte 21 Noroeste 0 -- -- 72
2020-06-28 00:00:00 22 8 Norte 16 Norte 0 -- -- 68
2020-06-27 23:00:00 22.3 6 Norte 17 Noroeste 0 -- -- 68
2020-06-27 22:00:00 23.9 7 Noroeste 18 Norte 0 -- -- 62
2020-06-27 21:00:00 25.7 8 Norte 25 Norte 0 -- -- 56
2020-06-27 20:00:00 27.5 12 Norte 23 Norte 0 -- -- 49
2020-06-27 19:00:00 29.6 10 Noroeste 24 Noroeste 0 -- -- 39
2020-06-27 18:00:00 28.4 2 Norte 18 Norte 0 -- -- 44
2020-06-27 17:00:00 29.3 3 Norte 19 Oeste 0 -- -- 41
2020-06-27 16:00:00 29.2 6 Sudoeste 22 Oeste 0 -- -- 38
2020-06-27 15:00:00 28.3 7 Oeste 18 Noroeste 0 -- -- 40
2020-06-27 14:00:00 27.4 7 Noroeste 17 Noroeste 0 -- -- 42
2020-06-27 13:00:00 26.3 5 Norte 13 Sudoeste 0 -- -- 48
2020-06-27 12:00:00 25 4 Sur 9 Sudeste 0 -- -- 51
2020-06-27 11:00:00 23.3 4 Sur 10 Sur 0 -- -- 59
2020-06-27 10:00:00 21.7 2 Sudoeste 7 Oeste 0 -- -- 65
2020-06-27 09:00:00 18.6 0 Calma 5 Norte 0 -- -- 76
2020-06-27 08:00:00 16.1 0 Calma 10 Noroeste 0 -- -- 85
2020-06-27 07:00:00 14.8 8 Noroeste 12 Noroeste 0 -- -- 90
2020-06-27 06:00:00 14.7 4 Noroeste 6 Oeste 0 -- -- 89
2020-06-27 05:00:00 15 4 Noroeste 10 Noroeste 0 -- -- 90
2020-06-27 04:00:00 16.1 7 Noroeste 13 Noroeste 0 -- -- 85
2020-06-27 03:00:00 16.1 8 Noroeste 12 Noroeste 0 -- -- 88
2020-06-27 02:00:00 16.3 6 Oeste 8 Noroeste 0 -- -- 90
2020-06-27 01:00:00 16.9 5 Noroeste 11 Noroeste 0 -- -- 88
2020-06-27 00:00:00 17.7 0 Calma 9 Este 0 -- -- 90
2020-06-26 23:00:00 18.7 4 Este 26 Sudeste 0.2 -- -- 87
2020-06-26 22:00:00 18.8 10 Nordeste 27 Noroeste 5.6 -- -- 83
2020-06-26 21:00:00 23.9 3 Noroeste 15 Sudeste 0 -- -- 53
2020-06-26 20:00:00 25.3 13 Sudeste 33 Sudeste 0 -- -- 45
2020-06-26 19:00:00 26.5 22 Sudeste 40 Sudeste 0 -- -- 43
2020-06-26 18:00:00 29.7 20 Sudeste 35 Sudeste 0 -- -- 36
2020-06-26 17:00:00 29.5 16 Sudeste 31 Sudeste 0 -- -- 37
2020-06-26 16:00:00 28.6 18 Sudeste 35 Este 0 -- -- 40
2020-06-26 15:00:00 29.3 19 Sudeste 34 Sudeste 0 -- -- 37
2020-06-26 14:00:00 28.8 18 Sudeste 33 Sudeste 0 -- -- 37
2020-06-26 13:00:00 27.5 18 Sudeste 33 Sudeste 0 -- -- 38
2020-06-26 12:00:00 25.6 14 Sudeste 35 Sudeste 0 -- -- 45
2020-06-26 11:00:00 24.7 21 Sudeste 31 Sudeste 0 -- -- 49
2020-06-26 10:00:00 22.8 12 Sudeste 19 Sudeste 0 -- -- 62
2020-06-26 09:00:00 20.7 9 Sudeste 16 Sudeste 0 -- -- 73
2020-06-26 08:00:00 18.8 4 Sudeste 11 Sudeste 0 -- -- 82
2020-06-26 07:00:00 15.7 0 Calma 8 Oeste 0 -- -- 92
2020-06-26 06:00:00 15.9 0 Calma 5 Sudeste 0 -- -- 93
2020-06-26 05:00:00 16.1 4 Sudeste 7 Sudeste 0 -- -- 93
2020-06-26 04:00:00 16.8 0 Calma 6 Oeste 0 -- -- 92
2020-06-26 03:00:00 17.3 3 Noroeste 10 Nordeste 0 -- -- 91
2020-06-26 02:00:00 17.6 0 Calma 8 Este 0 -- -- 93
2020-06-26 01:00:00 18.4 0 Calma 9 Noroeste 0 -- -- 91
2020-06-26 00:00:00 18.9 2 Sudeste 13 Sudeste 0 -- -- 89
2020-06-25 23:00:00 19.5 6 Oeste 22 Nordeste 0 -- -- 83
2020-06-25 22:00:00 19.5 16 Este 29 Este 0.8 -- -- 79
2020-06-25 21:00:00 20 13 Noroeste 32 Norte 0.8 -- -- 83
2020-06-25 20:00:00 19.6 21 Noroeste 44 Noroeste 1.2 -- -- 84
2020-06-25 19:00:00 21.7 10 Noroeste 54 Sudoeste 0.8 -- -- 74
2020-06-25 18:00:00 30.1 0 Calma 10 Este 0 -- -- 45
2020-06-25 17:00:00 31.4 8 Este 20 Sudeste 0 -- -- 30
2020-06-25 16:00:00 29.3 5 Este 15 Oeste 0 -- -- 43
2020-06-25 15:00:00 29.5 13 Noroeste 24 Oeste 0 -- -- 40
2020-06-25 14:00:00 30.7 6 Sudoeste 22 Sur 0 -- -- 37
2020-06-25 13:00:00 29.1 9 Sudeste 26 Sudeste 0 -- -- 40
2020-06-25 12:00:00 27.7 13 Sudeste 26 Este 0 -- -- 44
2020-06-25 11:00:00 25.3 14 Sudeste 24 Sudeste 0 -- -- 50
2020-06-25 10:00:00 23.6 3 Sudeste 9 Sudeste 0 -- -- 54
2020-06-25 09:00:00 21.7 0 Calma 5 Este 0 -- -- 62
2020-06-25 08:00:00 19.2 0 Calma 8 Oeste 0 -- -- 76
2020-06-25 07:00:00 15.9 0 Calma 7 Oeste 0 -- -- 83
2020-06-25 06:00:00 16.3 4 Oeste 6 Oeste 0 -- -- 80
2020-06-25 05:00:00 17.1 2 Oeste 7 Este 0 -- -- 78
2020-06-25 04:00:00 17.7 3 Noroeste 8 Este 0 -- -- 75
2020-06-25 03:00:00 17.6 0 Calma 13 Este 0 -- -- 76
2020-06-25 02:00:00 19.1 5 Sudeste 8 Sudeste 0 -- -- 68
2020-06-25 01:00:00 21.8 5 Sudeste 15 Sudeste 0 -- -- 57
2020-06-25 00:00:00 23 4 Sudeste 25 Noroeste 0 -- -- 56
2020-06-24 23:00:00 24.9 11 Sudeste 28 Este 0 -- -- 45
2020-06-24 22:00:00 25 13 Este 37 Este 0 -- -- 44
2020-06-24 21:00:00 26.5 13 Este 32 Este 0 -- -- 38
2020-06-24 20:00:00 31.1 5 Este 17 Este 0 -- -- 31
2020-06-24 19:00:00 32.1 9 Sudeste 16 Sudeste 0 -- -- 33
2020-06-24 18:00:00 30.4 7 Sudeste 17 Sudeste 0 -- -- 39
2020-06-24 17:00:00 31.3 4 Sudoeste 11 Sudoeste 0 -- -- 36
2020-06-24 16:00:00 30.9 6 Sudoeste 15 Sudoeste 0 -- -- 38
2020-06-24 15:00:00 31.8 7 Sur 21 Sur 0 -- -- 35
2020-06-24 14:00:00 31.1 10 Sur 25 Sudeste 0 -- -- 37
2020-06-24 13:00:00 29.5 12 Sudeste 23 Sur 0 -- -- 42
2020-06-24 12:00:00 28 11 Sudeste 23 Sudeste 0 -- -- 45
2020-06-24 11:00:00 26.2 8 Sur 23 Sudeste 0 -- -- 53
2020-06-24 10:00:00 24.8 14 Sudeste 28 Sudeste 0 -- -- 53
2020-06-24 09:00:00 23.1 9 Sur 25 Sudeste 0 -- -- 59
2020-06-24 08:00:00 21.5 10 Sudeste 19 Sudeste 0 -- -- 65
2020-06-24 07:00:00 18.5 5 Este 10 Este 0 -- -- 77
2020-06-24 06:00:00 19.2 5 Noroeste 9 Noroeste 0 -- -- 73
2020-06-24 05:00:00 20.5 5 Sur 10 Sur 0 -- -- 66
2020-06-24 04:00:00 22.8 5 Sur 11 Sudeste 0 -- -- 56
2020-06-24 03:00:00 21.8 8 Sudeste 12 Este 0 -- -- 61
2020-06-24 02:00:00 20.4 6 Este 12 Este 0 -- -- 68
2020-06-24 01:00:00 19.4 2 Este 5 Este 0 -- -- 74
2020-06-24 00:00:00 20.7 3 Oeste 5 Oeste 0 -- -- 67
2020-06-23 23:00:00 22 0 Calma 6 Este 0 -- -- 62
2020-06-23 22:00:00 25.3 0 Calma 8 Sudeste 0 -- -- 51
2020-06-23 21:00:00 29 0 Calma -- -- 0 -- -- 44
2020-06-23 20:00:00 32.2 0 Calma 8 Nordeste 0 -- -- 31
2020-06-23 19:00:00 33.1 3 Este 12 Este 0 -- -- 25
2020-06-23 18:00:00 32.6 7 Sur 15 Este 0 -- -- 29
2020-06-23 17:00:00 32.1 5 Este 15 Este 0 -- -- 28
2020-06-23 16:00:00 31.3 8 Sur 21 Sur 0 -- -- 30
2020-06-23 15:00:00 30.4 8 Sur 21 Sur 0 -- -- 36
2020-06-23 14:00:00 29 10 Sudeste 23 Sudeste 0 -- -- 41
2020-06-23 13:00:00 27.7 12 Sur 24 Sudeste 0 -- -- 48
2020-06-23 12:00:00 26.3 11 Sudeste 29 Sudeste 0 -- -- 51
2020-06-23 11:00:00 24.5 14 Sudeste 32 Sudeste 0 -- -- 57
2020-06-23 10:00:00 22.5 11 Sudeste 20 Sudeste 0 -- -- 64
2020-06-23 09:00:00 19.3 5 Norte 8 Noroeste 0 -- -- 69
2020-06-23 08:00:00 16 3 Norte 6 Oeste 0 -- -- 80
2020-06-23 07:00:00 12.9 0 Calma 5 Oeste 0 -- -- 87
2020-06-23 06:00:00 13.7 4 Noroeste 5 Oeste 0 -- -- 83
2020-06-23 05:00:00 14.4 4 Noroeste 8 Noroeste 0 -- -- 79
2020-06-23 04:00:00 15.4 4 Noroeste 15 Oeste 0 -- -- 77
2020-06-23 03:00:00 16.3 9 Noroeste 16 Noroeste 0 -- -- 77
2020-06-23 02:00:00 17.1 11 Noroeste 17 Noroeste 0 -- -- 76
2020-06-23 01:00:00 17.8 11 Noroeste 22 Norte 0 -- -- 73
2020-06-23 00:00:00 19.1 11 Noroeste 28 Noroeste 0 -- -- 68
2020-06-22 23:00:00 19.9 6 Noroeste 33 Noroeste 0 -- -- 64
2020-06-22 22:00:00 21 15 Noroeste 40 Norte 0 -- -- 63
2020-06-22 21:00:00 22.8 18 Norte 38 Noroeste 0 -- -- 55
2020-06-22 20:00:00 25.4 21 Noroeste 34 Noroeste 0 -- -- 47
2020-06-22 19:00:00 26.9 16 Norte 31 Noroeste 0 -- -- 42
2020-06-22 18:00:00 27.8 15 Noroeste 30 Norte 0 -- -- 38
2020-06-22 17:00:00 27.9 14 Noroeste 29 Noroeste 0 -- -- 37
2020-06-22 16:00:00 27.2 15 Norte 28 Noroeste 0 -- -- 41
2020-06-22 15:00:00 26.2 14 Noroeste 31 Norte 0 -- -- 42
2020-06-22 14:00:00 25.1 15 Norte 30 Noroeste 0 -- -- 46
2020-06-22 13:00:00 23.7 15 Norte 31 Noroeste 0 -- -- 49
2020-06-22 12:00:00 22.5 15 Norte 37 Noroeste 0 -- -- 53
2020-06-22 11:00:00 20.9 18 Norte 42 Noroeste 0 -- -- 60
2020-06-22 10:00:00 19.7 18 Noroeste 41 Norte 0 -- -- 65
2020-06-22 09:00:00 18.8 20 Noroeste 36 Noroeste 0 -- -- 68
2020-06-22 08:00:00 17 19 Noroeste 29 Noroeste 0 -- -- 76
2020-06-22 07:00:00 15.4 13 Noroeste 24 Noroeste 0 -- -- 81
2020-06-22 06:00:00 15.9 15 Noroeste 27 Noroeste 0 -- -- 80
2020-06-22 05:00:00 15.5 14 Noroeste 20 Noroeste 0 -- -- 79
2020-06-22 04:00:00 15.8 10 Noroeste 17 Noroeste 0 -- -- 74
2020-06-22 03:00:00 16.4 7 Noroeste 24 Noroeste 0 -- -- 68
2020-06-22 02:00:00 16.7 10 Oeste 18 Noroeste 0 -- -- 64
2020-06-22 01:00:00 17.3 9 Noroeste 35 Noroeste 0 -- -- 64
2020-06-22 00:00:00 18.4 19 Noroeste 42 Noroeste 0 -- -- 63
2020-06-21 23:00:00 19 19 Noroeste 36 Noroeste 0 -- -- 60
2020-06-21 22:00:00 20.1 15 Norte 32 Norte 0 -- -- 54
2020-06-21 21:00:00 22.2 15 Noroeste 33 Norte 0 -- -- 48
2020-06-21 20:00:00 24.3 17 Noroeste 40 Norte 0 -- -- 43
2020-06-21 19:00:00 25.5 19 Norte 40 Noroeste 0 -- -- 38
2020-06-21 18:00:00 26.2 21 Norte 42 Norte 0 -- -- 37
2020-06-21 17:00:00 26.7 19 Norte 37 Norte 0 -- -- 36
2020-06-21 16:00:00 27 14 Norte 32 Norte 0 -- -- 33
2020-06-21 15:00:00 27.4 14 Norte 33 Norte 0 -- -- 31
2020-06-21 14:00:00 27.1 15 Norte 33 Norte 0 -- -- 31
2020-06-21 13:00:00 26.8 9 Norte 25 Norte 0 -- -- 33
2020-06-21 12:00:00 25.7 13 Norte 31 Noroeste 0 -- -- 35
2020-06-21 11:00:00 24.6 14 Norte 29 Noroeste 0 -- -- 33
2020-06-21 10:00:00 22.1 14 Noroeste 27 Noroeste 0 -- -- 49
2020-06-21 09:00:00 19.3 14 Noroeste 21 Noroeste 0 -- -- 60
2020-06-21 08:00:00 16.5 5 Noroeste 18 Noroeste 0 -- -- 68
2020-06-21 07:00:00 14.9 10 Noroeste 18 Noroeste 0 -- -- 71
2020-06-21 06:00:00 14.8 11 Noroeste 15 Noroeste 0 -- -- 80
2020-06-21 05:00:00 15.3 8 Noroeste 12 Noroeste 0 -- -- 77
2020-06-21 04:00:00 16.1 9 Noroeste 17 Noroeste 0 -- -- 76
2020-06-21 03:00:00 16.9 8 Noroeste 21 Noroeste 0 -- -- 73
2020-06-21 02:00:00 18 14 Noroeste 20 Noroeste 0 -- -- 66
2020-06-21 01:00:00 18.8 11 Noroeste 17 Oeste 0 -- -- 57
2020-06-21 00:00:00 20.1 7 Noroeste 15 Noroeste 0 -- -- 50
2020-06-20 23:00:00 21 7 Noroeste 18 Nordeste 0 -- -- 54
2020-06-20 22:00:00 22.3 9 Norte 27 Norte 0 -- -- 48
2020-06-20 21:00:00 24.2 14 Norte 28 Norte 0 -- -- 48
2020-06-20 20:00:00 25.7 14 Norte 28 Norte 0 -- -- 51
2020-06-20 19:00:00 27.9 12 Norte 25 Norte 0 -- -- 45
2020-06-20 18:00:00 29 5 Oeste 23 Noroeste 0 -- -- 33
2020-06-20 17:00:00 28.3 10 Noroeste 21 Noroeste 0 -- -- 34
2020-06-20 16:00:00 27.1 8 Noroeste 21 Sudoeste 0 -- -- 40
2020-06-20 15:00:00 26 4 Sur 16 Oeste 0 -- -- 47
2020-06-20 14:00:00 24.5 4 Sudoeste 14 Sudeste 0 -- -- 52
2020-06-20 13:00:00 23.4 6 Sur 17 Sur 0 -- -- 59
2020-06-20 12:00:00 22 5 Sudeste 13 Sudeste 0 -- -- 63
2020-06-20 11:00:00 19.7 2 Sudeste 6 Noroeste 0 -- -- 70
2020-06-20 10:00:00 17.1 0 Calma 5 Norte 0 -- -- 74
2020-06-20 09:00:00 15.5 3 Norte 5 Norte 0 -- -- 78
2020-06-20 08:00:00 14.4 0 Calma 11 Noroeste 0 -- -- 78
2020-06-20 07:00:00 13.6 6 Noroeste 14 Oeste 0 -- -- 82
2020-06-20 06:00:00 13.3 6 Noroeste 14 Noroeste 0 -- -- 84
2020-06-20 05:00:00 13.4 6 Noroeste 15 Noroeste 0 -- -- 85
2020-06-20 04:00:00 14.1 9 Noroeste 17 Noroeste 0 -- -- 82
2020-06-20 03:00:00 14.9 12 Noroeste 22 Noroeste 0 -- -- 80
2020-06-20 02:00:00 15.7 14 Noroeste 27 Noroeste 0 -- -- 77
2020-06-20 01:00:00 16.2 12 Noroeste 27 Noroeste 0 -- -- 75
2020-06-20 00:00:00 17 17 Noroeste 25 Noroeste 0 -- -- 71
2020-06-19 23:00:00 18.7 3 Noroeste 20 Norte 0 -- -- 66
2020-06-19 22:00:00 19.4 10 Norte 24 Norte 0 -- -- 67
2020-06-19 21:00:00 21.3 11 Norte 31 Noroeste 0 -- -- 61
2020-06-19 20:00:00 23.6 17 Norte 28 Norte 0 -- -- 54
2020-06-19 19:00:00 25.3 14 Norte 25 Norte 0 -- -- 50
2020-06-19 18:00:00 26.1 5 Sudeste 13 Este 0 -- -- 42
2020-06-19 17:00:00 25.6 3 Sudeste 13 Sur 0 -- -- 42
2020-06-19 16:00:00 26.1 6 Oeste 16 Este 0 -- -- 41
2020-06-19 15:00:00 24.5 12 Sudeste 23 Sudeste 0 -- -- 49
2020-06-19 14:00:00 23.3 10 Sudeste 25 Sudeste 0 -- -- 52
2020-06-19 13:00:00 22.7 14 Sudeste 27 Sudeste 0 -- -- 53
2020-06-19 12:00:00 21.4 11 Sudeste 25 Sudeste 0 -- -- 60
2020-06-19 11:00:00 19.3 8 Sudeste 17 Sudeste 0 -- -- 65
2020-06-19 10:00:00 16.5 0 Calma 4 Sudeste 0 -- -- 61
2020-06-19 09:00:00 14 0 Calma 10 Oeste 0 -- -- 69
2020-06-19 08:00:00 12.2 3 Noroeste 9 Noroeste 0 -- -- 83
2020-06-19 07:00:00 11.3 6 Noroeste 13 Noroeste 0 -- -- 84
2020-06-19 06:00:00 11.3 9 Noroeste 14 Noroeste 0 -- -- 83
2020-06-19 05:00:00 11.6 6 Noroeste 14 Noroeste 0 -- -- 84
2020-06-19 04:00:00 12.4 6 Noroeste 13 Noroeste 0 -- -- 80
2020-06-19 03:00:00 13.2 7 Noroeste 17 Oeste 0 -- -- 75
2020-06-19 02:00:00 13.9 10 Noroeste 19 Oeste 0 -- -- 73
2020-06-19 01:00:00 14.4 11 Noroeste 19 Noroeste 0 -- -- 73
2020-06-19 00:00:00 15.2 6 Noroeste 18 Noroeste 0 -- -- 70
2020-06-18 23:00:00 16.2 8 Norte 25 Noroeste 0 -- -- 67
2020-06-18 22:00:00 17.5 12 Norte 27 Norte 0 -- -- 60
2020-06-18 21:00:00 19 14 Norte 26 Noroeste 0 -- -- 54
2020-06-18 20:00:00 20.2 13 Norte 30 Norte 0 -- -- 51
2020-06-18 19:00:00 21.3 17 Norte 30 Norte 0 -- -- 47
2020-06-18 18:00:00 22.7 12 Norte 24 Noroeste 0 -- -- 44
2020-06-18 17:00:00 23.4 6 Noroeste 19 Nordeste 0 -- -- 37
2020-06-18 16:00:00 22.2 8 Norte 18 Norte 0 -- -- 43
2020-06-18 15:00:00 20.9 5 Nordeste 17 Noroeste 0 -- -- 45
2020-06-18 14:00:00 19.7 5 Noroeste 12 Sudoeste 0 -- -- 48
2020-06-18 13:00:00 19.9 2 Sur 14 Noroeste 0 -- -- 53
2020-06-18 12:00:00 18.6 5 Sudoeste 12 Sudoeste 0 -- -- 54
2020-06-18 11:00:00 16.7 3 Oeste 17 Noroeste 0.2 -- -- 58
2020-06-18 10:00:00 15 4 Noroeste 12 Noroeste 0 -- -- 66
2020-06-18 09:00:00 14.2 7 Noroeste 18 Noroeste 0 -- -- 66
2020-06-18 08:00:00 13.4 4 Norte 15 Norte 0 -- -- 70
2020-06-18 07:00:00 12.7 8 Norte 21 Noroeste 0 -- -- 74
2020-06-18 06:00:00 11.8 6 Noroeste 13 Noroeste 0 -- -- 79
2020-06-18 05:00:00 12.1 7 Norte 16 Noroeste 0 -- -- 76
2020-06-18 04:00:00 12.2 8 Noroeste 13 Noroeste 0 -- -- 76
2020-06-18 03:00:00 12.6 9 Noroeste 17 Noroeste 0 -- -- 74
2020-06-18 02:00:00 13.1 9 Oeste 14 Noroeste 0 -- -- 70
2020-06-18 01:00:00 13.5 8 Noroeste 17 Noroeste 0 -- -- 67
2020-06-18 00:00:00 13.6 9 Noroeste 20 Noroeste 0 -- -- 69
2020-06-17 23:00:00 14.2 6 Noroeste 21 Norte 0 -- -- 68
2020-06-17 22:00:00 15 10 Norte 26 Norte 0 -- -- 65
2020-06-17 21:00:00 16.8 7 Norte 32 Norte 0 -- -- 58
2020-06-17 20:00:00 18.5 17 Norte 37 Norte 0 -- -- 52
2020-06-17 19:00:00 19 21 Norte 36 Norte 0 -- -- 53
2020-06-17 18:00:00 20.9 14 Norte 35 Noroeste 0 -- -- 46
2020-06-17 17:00:00 22.1 8 Oeste 26 Noroeste 0 -- -- 39
2020-06-17 16:00:00 20.9 10 Noroeste 22 Oeste 0 -- -- 41
2020-06-17 15:00:00 19 7 Norte 18 Norte 0 -- -- 53
2020-06-17 14:00:00 19.5 7 Noroeste 16 Oeste 0 -- -- 48
2020-06-17 13:00:00 19.1 8 Noroeste 20 Oeste 0 -- -- 51
2020-06-17 12:00:00 17.2 5 Norte 17 Oeste 0 -- -- 57
2020-06-17 11:00:00 16.3 10 Noroeste 19 Oeste 0 -- -- 62
2020-06-17 10:00:00 15.1 5 Noroeste 13 Noroeste 0 -- -- 67
2020-06-17 09:00:00 13.9 5 Noroeste 12 Noroeste 0 -- -- 76
2020-06-17 08:00:00 12.7 3 Norte 12 Noroeste 0 -- -- 86
2020-06-17 07:00:00 11.9 7 Noroeste 13 Noroeste 0 -- -- 87
2020-06-17 06:00:00 11.8 3 Oeste 7 Oeste 0 -- -- 88
2020-06-17 05:00:00 11.3 2 Norte 8 Noroeste 0 -- -- 90
2020-06-17 04:00:00 11.7 2 Sudoeste 10 Noroeste 0 -- -- 87
2020-06-17 03:00:00 12.2 2 Oeste 13 Noroeste 0 -- -- 83
2020-06-17 02:00:00 12.1 10 Noroeste 16 Noroeste 0 -- -- 82
2020-06-17 01:00:00 12.6 6 Noroeste 19 Noroeste 0 -- -- 80
2020-06-17 00:00:00 13.1 10 Noroeste 20 Noroeste 0 -- -- 78
2020-06-16 23:00:00 13.2 11 Noroeste 20 Noroeste 0 -- -- 83
2020-06-16 22:00:00 13.4 8 Norte 24 Norte 2.2 -- -- 84
2020-06-16 21:00:00 15.7 13 Noroeste 22 Oeste 0 -- -- 79
2020-06-16 20:00:00 16.8 8 Noroeste 24 Norte 0.2 -- -- 72
2020-06-16 19:00:00 16.5 12 Noroeste 26 Noroeste 0.6 -- -- 77
2020-06-16 18:00:00 16.5 12 Noroeste 28 Noroeste 0.4 -- -- 73
2020-06-16 17:00:00 18.2 10 Norte 40 Norte 0 -- -- 56
2020-06-16 16:00:00 17.4 27 Norte 55 Norte 0 -- -- 60
2020-06-16 15:00:00 22.4 9 Oeste 26 Noroeste 0 -- -- 40
2020-06-16 14:00:00 22.9 5 Sudoeste 21 Noroeste 0 -- -- 42
2020-06-16 13:00:00 21.5 6 Noroeste 20 Noroeste 0 -- -- 43
2020-06-16 12:00:00 20.5 5 Sudoeste 14 Noroeste 0 -- -- 49
2020-06-16 11:00:00 18.4 0 Calma 9 Este 0 -- -- 57
2020-06-16 10:00:00 16.7 4 Noroeste 12 Noroeste 0 -- -- 63
2020-06-16 09:00:00 15.3 6 Noroeste 14 Noroeste 0 -- -- 69
2020-06-16 08:00:00 14.4 6 Noroeste 14 Noroeste 0 -- -- 72
2020-06-16 07:00:00 13.9 8 Noroeste 13 Noroeste 0 -- -- 74
2020-06-16 06:00:00 14.1 6 Noroeste 14 Noroeste 0 -- -- 72
2020-06-16 05:00:00 14.2 8 Noroeste 21 Noroeste 0 -- -- 71
2020-06-16 04:00:00 14.3 13 Noroeste 19 Noroeste 0 -- -- 69
2020-06-16 03:00:00 14.4 9 Noroeste 17 Noroeste 0 -- -- 67
2020-06-16 02:00:00 14.7 5 Noroeste 14 Nordeste 0 -- -- 66
2020-06-16 01:00:00 15.2 7 Norte 17 Norte 0 -- -- 66
2020-06-16 00:00:00 15.9 10 Norte 20 Norte 0 -- -- 63
2020-06-15 23:00:00 16.8 7 Noroeste 19 Norte 0 -- -- 61
2020-06-15 22:00:00 17.6 10 Norte 24 Nordeste 0 -- -- 62
2020-06-15 21:00:00 18.8 11 Norte 27 Norte 0 -- -- 56
2020-06-15 20:00:00 19.9 10 Norte 27 Norte 0 -- -- 56
2020-06-15 19:00:00 21 14 Norte 27 Norte 0 -- -- 51
2020-06-15 18:00:00 21 15 Norte 27 Norte 0 -- -- 53
2020-06-15 17:00:00 22.7 13 Norte 28 Noroeste 0 -- -- 48
2020-06-15 16:00:00 23.3 17 Noroeste 28 Noroeste 0 -- -- 39
2020-06-15 15:00:00 23.8 13 Noroeste 30 Noroeste 0 -- -- 40
2020-06-15 14:00:00 22.2 5 Noroeste 23 Noroeste 0 -- -- 43
2020-06-15 13:00:00 20.8 4 Norte 20 Noroeste 0 -- -- 49
2020-06-15 12:00:00 19.7 6 Oeste 18 Noroeste 0 -- -- 54
2020-06-15 11:00:00 18.1 11 Noroeste 19 Noroeste 0 -- -- 55
2020-06-15 10:00:00 17.6 4 Noroeste 14 Oeste 0 -- -- 59
2020-06-15 09:00:00 15.5 10 Noroeste 15 Noroeste 0 -- -- 67
2020-06-15 08:00:00 13.1 4 Noroeste 10 Noroeste 0 -- -- 77
2020-06-15 07:00:00 12.1 5 Noroeste 14 Oeste 0 -- -- 78
2020-06-15 06:00:00 12.8 10 Noroeste 19 Noroeste 0 -- -- 72
2020-06-15 05:00:00 13.4 5 Noroeste 14 Noroeste 0 -- -- 70
2020-06-15 04:00:00 13.7 6 Oeste 17 Noroeste 0 -- -- 68
2020-06-15 03:00:00 14.1 10 Noroeste 19 Noroeste 0 -- -- 67
2020-06-15 02:00:00 14.3 9 Noroeste 15 Noroeste 0 -- -- 68
2020-06-15 01:00:00 15.1 7 Noroeste 19 Norte 0 -- -- 63
2020-06-15 00:00:00 15.9 4 Norte 17 Noroeste 0 -- -- 59
2020-06-14 23:00:00 16.5 5 Norte 25 Norte 0 -- -- 58
2020-06-14 22:00:00 17 6 Norte 30 Norte 0 -- -- 59
2020-06-14 21:00:00 17.9 14 Norte 32 Norte 0 -- -- 57
2020-06-14 20:00:00 19.2 17 Norte 32 Norte 0 -- -- 57
2020-06-14 19:00:00 21.5 10 Noroeste 22 Noroeste 0 -- -- 42
2020-06-14 18:00:00 22.5 6 Norte 22 Noroeste 0 -- -- 43
2020-06-14 17:00:00 23.2 11 Noroeste 23 Noroeste 0 -- -- 36
2020-06-14 16:00:00 23.2 4 Sudoeste 18 Noroeste 0 -- -- 41
2020-06-14 15:00:00 22.2 3 Norte 10 Noroeste 0 -- -- 42
2020-06-14 14:00:00 22.9 5 Sudoeste 17 Norte 0 -- -- 38
2020-06-14 13:00:00 22.1 4 Este 14 Noroeste 0 -- -- 40
2020-06-14 12:00:00 20.3 6 Noroeste 17 Noroeste 0 -- -- 46
2020-06-14 11:00:00 19 9 Noroeste 19 Noroeste 0 -- -- 53
2020-06-14 10:00:00 17.1 5 Noroeste 11 Noroeste 0 -- -- 69
2020-06-14 09:00:00 14.7 8 Noroeste 12 Noroeste 0 -- -- 78
2020-06-14 08:00:00 13.4 5 Noroeste 10 Noroeste 0 -- -- 80
2020-06-14 07:00:00 12.8 5 Noroeste 15 Noroeste 0 -- -- 81
2020-06-14 06:00:00 13.2 7 Noroeste 14 Noroeste 0 -- -- 81
2020-06-14 05:00:00 13.5 8 Noroeste 13 Noroeste 0 -- -- 79
2020-06-14 04:00:00 13.5 5 Noroeste 9 Norte 0 -- -- 79
2020-06-14 03:00:00 13.1 5 Noroeste 12 Noroeste 0 -- -- 81
2020-06-14 02:00:00 13.6 4 Noroeste 11 Noroeste 0 -- -- 76
2020-06-14 01:00:00 13.7 6 Noroeste 13 Noroeste 0 -- -- 76
2020-06-14 00:00:00 14 5 Noroeste 13 Noroeste 0 -- -- 73
2020-06-13 23:00:00 14.9 5 Norte 13 Noroeste 0 -- -- 73
2020-06-13 22:00:00 17.2 5 Norte 18 Noroeste 0 -- -- 62
2020-06-13 21:00:00 20.2 9 Noroeste 23 Oeste 0 -- -- 43
2020-06-13 20:00:00 21 6 Noroeste 18 Oeste 0 -- -- 42
2020-06-13 19:00:00 21.2 5 Noroeste 27 Noroeste 0 -- -- 40
2020-06-13 18:00:00 21.5 10 Noroeste 31 Noroeste 0 -- -- 39
2020-06-13 17:00:00 21.4 12 Oeste 28 Oeste 0 -- -- 37
2020-06-13 16:00:00 20.9 14 Oeste 32 Noroeste 0 -- -- 39
2020-06-13 15:00:00 20.6 17 Noroeste 36 Oeste 0 -- -- 41
2020-06-13 14:00:00 20.7 18 Oeste 40 Noroeste 0 -- -- 38
2020-06-13 13:00:00 19.8 15 Oeste 36 Noroeste 0 -- -- 42
2020-06-13 12:00:00 18.9 11 Oeste 37 Noroeste 0 -- -- 47
2020-06-13 11:00:00 17 8 Oeste 26 Noroeste 0 -- -- 58
2020-06-13 10:00:00 15.5 10 Oeste 21 Noroeste 0 -- -- 65
2020-06-13 09:00:00 14 0 Calma 6 Noroeste 0 -- -- 77
2020-06-13 08:00:00 12.4 3 Oeste 6 Oeste 0 -- -- 88
2020-06-13 07:00:00 11.9 0 Calma 5 Oeste 0 -- -- 88
2020-06-13 06:00:00 11.7 0 Calma 9 Este 0 -- -- 87
2020-06-13 05:00:00 11.8 4 Este 11 Este 0 -- -- 85
2020-06-13 04:00:00 11.6 4 Este 13 Este 0 -- -- 86
2020-06-13 03:00:00 11.8 5 Este 11 Sudeste 0 -- -- 86
2020-06-13 02:00:00 11.9 5 Este 11 Este 0 -- -- 88
2020-06-13 01:00:00 11.6 0 Calma 10 Sudeste 0 -- -- 89
2020-06-13 00:00:00 12.3 6 Sudeste 9 Sur 0.2 -- -- 87
2020-06-12 23:00:00 12.7 2 Sudeste 12 Sudeste 0 -- -- 85
2020-06-12 22:00:00 12.8 2 Sudeste 9 Este 0 -- -- 87
2020-06-12 21:00:00 13.8 5 Este 10 Noroeste 0 -- -- 80
2020-06-12 20:00:00 14.9 8 Noroeste 21 Noroeste 0.2 -- -- 76
2020-06-12 19:00:00 17.5 9 Oeste 29 Oeste 0 -- -- 59
2020-06-12 18:00:00 17.8 13 Sur 39 Sudeste 0 -- -- 58
2020-06-12 17:00:00 18.6 19 Sudeste 35 Sur 0.2 -- -- 51
2020-06-12 16:00:00 16.6 10 Sur 31 Sudeste 1 -- -- 63
2020-06-12 15:00:00 16.7 8 Sur 29 Sur 0.4 -- -- 66
2020-06-12 14:00:00 18.5 18 Sur 42 Sur 0 -- -- 49
2020-06-12 13:00:00 17.3 13 Sur 28 Sur 0 -- -- 50
2020-06-12 12:00:00 17.2 12 Sur 24 Sur 0 -- -- 48
2020-06-12 11:00:00 15.8 8 Sur 17 Sudeste 0 -- -- 56
2020-06-12 10:00:00 13.2 7 Sudeste 17 Sudeste 0 -- -- 65
2020-06-12 09:00:00 12 7 Sudeste 12 Sudeste 0 -- -- 71
2020-06-12 08:00:00 10.2 5 Este 11 Este 0 -- -- 85
2020-06-12 07:00:00 6.4 0 Calma 6 Sudeste 0 -- -- 94
2020-06-12 06:00:00 7.2 0 Calma 15 Noroeste 0 -- -- 93
2020-06-12 05:00:00 7.1 2 Norte 7 Sudeste 0 -- -- 94
2020-06-12 04:00:00 7.8 5 Sudeste 8 Sudeste 0 -- -- 93
2020-06-12 03:00:00 8.4 3 Norte 10 Noroeste 0 -- -- 89
2020-06-12 02:00:00 8.2 9 Noroeste 16 Noroeste 0 -- -- 89
2020-06-12 01:00:00 9.7 11 Noroeste 20 Noroeste 0 -- -- 83
2020-06-12 00:00:00 10.4 7 Norte 26 Norte 0 -- -- 83
2020-06-11 23:00:00 11.1 10 Norte 27 Oeste 0 -- -- 81
2020-06-11 22:00:00 11.7 15 Norte 30 Norte 0 -- -- 78
2020-06-11 21:00:00 12.3 15 Noroeste 26 Noroeste 0 -- -- 81
2020-06-11 20:00:00 12.9 15 Norte 42 Noroeste 1.2 -- -- 79
2020-06-11 19:00:00 12.3 30 Noroeste 50 Noroeste 1.6 -- -- 84
2020-06-11 18:00:00 21.3 8 Sur 19 Sudeste 0 -- -- 46
2020-06-11 17:00:00 21.6 10 Sudeste 19 Sudeste 0 -- -- 46
2020-06-11 16:00:00 20.9 4 Sudeste 20 Sur 0 -- -- 47
2020-06-11 15:00:00 21 7 Este 18 Sudeste 0 -- -- 46
2020-06-11 14:00:00 19.6 3 Este 15 Sudeste 0 -- -- 47
2020-06-11 13:00:00 19 8 Este 22 Sudeste 0 -- -- 53
2020-06-11 12:00:00 18.1 10 Sudeste 25 Sudeste 0 -- -- 52
2020-06-11 11:00:00 16.8 10 Sudeste 19 Sudeste 0 -- -- 55
2020-06-11 10:00:00 15.5 10 Sudeste 17 Sudeste 0 -- -- 66
2020-06-11 09:00:00 14.4 4 Sudeste 11 Sudeste 0 -- -- 70
2020-06-11 08:00:00 12.6 0 Calma -- -- 0 -- -- 84
2020-06-11 07:00:00 11.9 0 Calma 4 Sudeste 0 -- -- 83
2020-06-11 06:00:00 11.6 0 Calma -- -- 0 -- -- 85
2020-06-11 05:00:00 11.9 0 Calma -- -- 0 -- -- 81
2020-06-11 04:00:00 12.4 0 Calma 10 Noroeste 0 -- -- 77
2020-06-11 03:00:00 12.6 4 Noroeste 15 Noroeste 0 -- -- 73
2020-06-11 02:00:00 13.1 6 Noroeste 11 Noroeste 0 -- -- 71
2020-06-11 01:00:00 13.5 4 Noroeste 17 Noroeste 0 -- -- 67
2020-06-11 00:00:00 13.6 5 Noroeste 14 Noroeste 0 -- -- 66
2020-06-10 23:00:00 14.1 3 Noroeste 8 Noroeste 0 -- -- 64
2020-06-10 22:00:00 15 0 Calma 12 Noroeste 0 -- -- 54
2020-06-10 21:00:00 15.8 4 Norte 19 Norte 0 -- -- 49
2020-06-10 20:00:00 16.1 10 Norte 29 Norte 0 -- -- 48
2020-06-10 19:00:00 16.9 9 Norte 26 Norte 0 -- -- 45
2020-06-10 18:00:00 17.2 13 Norte 27 Noroeste 0 -- -- 49
2020-06-10 17:00:00 18 10 Norte 31 Norte 0 -- -- 50
2020-06-10 16:00:00 19.2 13 Norte 31 Norte 0 -- -- 48
2020-06-10 15:00:00 19 15 Norte 30 Norte 0 -- -- 48
2020-06-10 14:00:00 19.2 16 Norte 32 Noroeste 0 -- -- 46
2020-06-10 13:00:00 18.4 15 Norte 31 Norte 0 -- -- 52
2020-06-10 12:00:00 17.7 12 Norte 25 Norte 0 -- -- 55
2020-06-10 11:00:00 16.4 15 Norte 31 Norte 0 -- -- 54
2020-06-10 10:00:00 15.5 10 Norte 25 Noroeste 0 -- -- 62
2020-06-10 09:00:00 14.6 14 Noroeste 25 Noroeste 0 -- -- 69
2020-06-10 08:00:00 13.6 15 Noroeste 22 Noroeste 0 -- -- 72
2020-06-10 07:00:00 12.1 11 Noroeste 17 Noroeste 0 -- -- 80
2020-06-10 06:00:00 11.9 12 Noroeste 18 Noroeste 0 -- -- 81
2020-06-10 05:00:00 11.8 9 Noroeste 18 Noroeste 0 -- -- 80
2020-06-10 04:00:00 10.8 11 Noroeste 16 Oeste 0 -- -- 84
2020-06-10 03:00:00 10.8 6 Noroeste 15 Noroeste 0 -- -- 82
2020-06-10 02:00:00 11.7 9 Noroeste 16 Oeste 0 -- -- 77
2020-06-10 01:00:00 11.4 6 Noroeste 11 Noroeste 0 -- -- 77
2020-06-10 00:00:00 12.4 0 Calma 14 Norte 0 -- -- 74
2020-06-09 23:00:00 13.4 8 Noroeste 22 Noroeste 0 -- -- 69
2020-06-09 22:00:00 13.7 10 Norte 23 Norte 0 -- -- 71
2020-06-09 21:00:00 14.5 11 Norte 31 Norte 0 -- -- 66
2020-06-09 20:00:00 15.9 19 Norte 36 Norte 0 -- -- 58
2020-06-09 19:00:00 17.3 22 Noroeste 38 Noroeste 0 -- -- 49
2020-06-09 18:00:00 16.6 17 Norte 34 Norte 0 -- -- 53
2020-06-09 17:00:00 16.7 14 Norte 37 Noroeste 0 -- -- 53
2020-06-09 16:00:00 18.1 18 Norte 39 Noroeste 0 -- -- 50
2020-06-09 15:00:00 16.3 18 Noroeste 52 Noroeste 0 -- -- 54
2020-06-09 14:00:00 16.5 12 Norte 35 Norte 0 -- -- 55
2020-06-09 13:00:00 17.8 18 Noroeste 39 Noroeste 0 -- -- 50
2020-06-09 12:00:00 16.6 19 Norte 39 Noroeste 0 -- -- 53
2020-06-09 11:00:00 13.9 12 Norte 30 Norte 0 -- -- 64
2020-06-09 10:00:00 15 12 Noroeste 27 Norte 0 -- -- 60
2020-06-09 09:00:00 12.8 10 Noroeste 18 Noroeste 0 -- -- 70
2020-06-09 08:00:00 10.9 5 Noroeste 10 Noroeste 0 -- -- 78
2020-06-09 07:00:00 8.6 7 Noroeste 12 Noroeste 0 -- -- 85
2020-06-09 06:00:00 9.1 6 Noroeste 14 Noroeste 0 -- -- 85
2020-06-09 05:00:00 9.3 12 Noroeste 20 Noroeste 0 -- -- 84
2020-06-09 04:00:00 9.3 10 Noroeste 21 Noroeste 0 -- -- 84
2020-06-09 03:00:00 9.6 12 Noroeste 16 Oeste 0 -- -- 82
2020-06-09 02:00:00 10.8 7 Noroeste 24 Noroeste 0 -- -- 75
2020-06-09 01:00:00 10.6 11 Noroeste 22 Noroeste 0 -- -- 82
2020-06-09 00:00:00 11.2 12 Noroeste 22 Noroeste 0 -- -- 79
2020-06-08 23:00:00 11.7 11 Noroeste 22 Noroeste 0 -- -- 76
2020-06-08 22:00:00 12.1 10 Norte 28 Noroeste 0 -- -- 78
2020-06-08 21:00:00 13.7 12 Norte 29 Noroeste 0 -- -- 67
2020-06-08 20:00:00 15.1 15 Norte 36 Noroeste 0 -- -- 59
2020-06-08 19:00:00 16.2 17 Norte 41 Noroeste 0 -- -- 55
2020-06-08 18:00:00 16 14 Norte 36 Norte 0 -- -- 57
2020-06-08 17:00:00 16.9 17 Noroeste 31 Noroeste 0 -- -- 57
2020-06-08 16:00:00 15.6 17 Norte 34 Noroeste 0 -- -- 59
2020-06-08 15:00:00 16.6 10 Norte 31 Noroeste 0 -- -- 57
2020-06-08 14:00:00 16.5 19 Noroeste 33 Noroeste 0 -- -- 54
2020-06-08 13:00:00 15.8 14 Norte 33 Noroeste 0 -- -- 59
2020-06-08 12:00:00 16.1 15 Noroeste 31 Noroeste 0 -- -- 56
2020-06-08 11:00:00 15.7 12 Norte 26 Noroeste 0 -- -- 60
2020-06-08 10:00:00 13 16 Noroeste 27 Noroeste 0 -- -- 67
2020-06-08 09:00:00 12 12 Noroeste 21 Noroeste 0 -- -- 75
2020-06-08 08:00:00 11.3 9 Noroeste 18 Noroeste 0 -- -- 82
2020-06-08 07:00:00 9.6 7 Noroeste 15 Noroeste 0 -- -- 86
2020-06-08 06:00:00 9.6 8 Noroeste 20 Noroeste 0 -- -- 83
2020-06-08 05:00:00 10.1 13 Noroeste 20 Noroeste 0 -- -- 81
2020-06-08 04:00:00 10 12 Noroeste 21 Noroeste 0 -- -- 80
2020-06-08 03:00:00 9.9 10 Noroeste 17 Oeste 0 -- -- 81
2020-06-08 02:00:00 10.3 10 Noroeste 15 Noroeste 0 -- -- 77
2020-06-08 01:00:00 9.6 9 Noroeste 18 Noroeste 0 -- -- 80
2020-06-08 00:00:00 10.1 8 Noroeste 19 Noroeste 0 -- -- 77